logo dgac
Miércoles 14 de Noviembre del 2018
Buscar por aerodromo o helipuerto
Ingrese nombre de aeródromo, localidad o designador OACI:

Aeródromo: Melinka (PUB) (SCMK)

Ubicación: Melinka, XI Región, Chile (43º 53' 42'' S, 73º 44' 20'' W) Ver ubicación en el mapa

Pistas

Orientación Dimensión Pendiente Superficie Resistencia APCH THR RWY PAPI
18/36 800 x 18 1,00 ASPH 13.500 kg No No No No
Horas de operación HJ
Elevación 11 m / 35 ft
Otra Información Adm : D.G.A.C.
Uso : PUB
TEL (067) 2431515 / CEL 971084195
Ubicado a 500 m NE Melinka

Cámara de Aeródromo www.dgac.gob.cl

Otra información ver AIP-Chile Volumen I AD 3.9-11.1-M y VAC/#
CCCM/FCCV Descargar
andera de Chile
Mapa de Melinka (PUB) (SCMK)

Último METAR

METAR SCMK 142000Z 25015KT 9999 BKN023 10/05 Q1009

Último TAF

TAF SCMK 141054Z 1412/1500 36022KT 6000 -RA BKN005 OVC015 TN10/1412Z TX13/1418Z BECMG 1416/1418 8000 -SHRA BKN015 BECMG 1419/1421 25008KT 8000 -SHRA BKN035 BECMG 1422/1500 9999 NSW SCT040

Últimas fotos cámaras

Imagen aerodromo Melinka (PUB) (SCMK) Sur tomada el 14-11-2018 05:38:39 Imagen aerodromo Melinka (PUB) (SCMK) Norte tomada el 14-11-2018 05:38:48

Último NOTAM

No hay notams registrados para este aeródromo

LLegadas a Melinka (PUB) (SCMK)

En vuelo

Vuelo Procedencia Hora Despegue Local Hora Arribo Local

Salidas de Melinka (PUB) (SCMK)

En vuelo

Vuelo Hacia Hora Despegue Local Hora Arribo Local
CCCDR Marcel Marchant B.(PUB) (SCPF) 16:52 17:52